sensor_id;sensor_type;location;lat;lon;timestamp;P1;durP1;ratioP1;P2;durP2;ratioP2
7969;SDS011;4030;52.362;9.206;2023-10-19T00:00:19;7.25;;;6.65;;
7969;SDS011;4030;52.362;9.206;2023-10-19T00:02:53;6.90;;;6.25;;
7969;SDS011;4030;52.362;9.206;2023-10-19T00:05:20;7.10;;;6.40;;
7969;SDS011;4030;52.362;9.206;2023-10-19T00:07:46;6.93;;;6.22;;
7969;SDS011;4030;52.362;9.206;2023-10-19T00:10:12;6.55;;;6.05;;
7969;SDS011;4030;52.362;9.206;2023-10-19T00:12:40;7.00;;;6.32;;
7969;SDS011;4030;52.362;9.206;2023-10-19T00:15:08;7.22;;;6.53;;
7969;SDS011;4030;52.362;9.206;2023-10-19T00:17:36;6.97;;;6.28;;
7969;SDS011;4030;52.362;9.206;2023-10-19T00:20:04;7.07;;;6.37;;
7969;SDS011;4030;52.362;9.206;2023-10-19T00:23:04;6.95;;;6.25;;
7969;SDS011;4030;52.362;9.206;2023-10-19T00:25:30;7.40;;;6.70;;
7969;SDS011;4030;52.362;9.206;2023-10-19T00:27:59;7.00;;;6.25;;
7969;SDS011;4030;52.362;9.206;2023-10-19T00:30:28;7.22;;;6.53;;
7969;SDS011;4030;52.362;9.206;2023-10-19T00:32:57;7.10;;;6.50;;
7969;SDS011;4030;52.362;9.206;2023-10-19T00:35:28;7.85;;;7.15;;
7969;SDS011;4030;52.362;9.206;2023-10-19T00:38:07;7.70;;;7.00;;
7969;SDS011;4030;52.362;9.206;2023-10-19T00:40:51;7.10;;;6.40;;
7969;SDS011;4030;52.362;9.206;2023-10-19T00:43:36;7.70;;;7.00;;
7969;SDS011;4030;52.362;9.206;2023-10-19T00:46:11;7.70;;;6.90;;
7969;SDS011;4030;52.362;9.206;2023-10-19T00:51:14;7.55;;;6.47;;
7969;SDS011;4030;52.362;9.206;2023-10-19T00:53:53;7.90;;;7.10;;
7969;SDS011;4030;52.362;9.206;2023-10-19T00:56:24;8.25;;;7.22;;
7969;SDS011;4030;52.362;9.206;2023-10-19T00:58:54;7.88;;;7.07;;
7969;SDS011;4030;52.362;9.206;2023-10-19T01:01:26;8.18;;;7.38;;
7969;SDS011;4030;52.362;9.206;2023-10-19T01:03:54;8.27;;;7.47;;
7969;SDS011;4030;52.362;9.206;2023-10-19T01:06:24;8.50;;;7.50;;
7969;SDS011;4030;52.362;9.206;2023-10-19T01:08:50;9.07;;;8.18;;
7969;SDS011;4030;52.362;9.206;2023-10-19T01:11:17;8.02;;;7.22;;
7969;SDS011;4030;52.362;9.206;2023-10-19T01:13:46;8.90;;;8.07;;
7969;SDS011;4030;52.362;9.206;2023-10-19T01:16:16;8.65;;;7.65;;
7969;SDS011;4030;52.362;9.206;2023-10-19T01:18:46;8.43;;;7.63;;
7969;SDS011;4030;52.362;9.206;2023-10-19T01:21:24;8.70;;;7.80;;
7969;SDS011;4030;52.362;9.206;2023-10-19T01:23:53;9.50;;;8.50;;
7969;SDS011;4030;52.362;9.206;2023-10-19T01:26:18;8.48;;;7.72;;
7969;SDS011;4030;52.362;9.206;2023-10-19T01:28:48;8.75;;;7.95;;
7969;SDS011;4030;52.362;9.206;2023-10-19T01:31:18;9.77;;;8.88;;
7969;SDS011;4030;52.362;9.206;2023-10-19T01:33:55;9.02;;;8.20;;
7969;SDS011;4030;52.362;9.206;2023-10-19T01:36:30;8.93;;;8.10;;
7969;SDS011;4030;52.362;9.206;2023-10-19T01:39:09;9.03;;;8.20;;
7969;SDS011;4030;52.362;9.206;2023-10-19T01:41:36;8.93;;;8.02;;
7969;SDS011;4030;52.362;9.206;2023-10-19T01:44:02;8.70;;;7.80;;
7969;SDS011;4030;52.362;9.206;2023-10-19T01:46:31;9.30;;;8.35;;
7969;SDS011;4030;52.362;9.206;2023-10-19T01:49:00;9.70;;;8.27;;
7969;SDS011;4030;52.362;9.206;2023-10-19T01:51:29;8.95;;;8.15;;
7969;SDS011;4030;52.362;9.206;2023-10-19T01:53:57;8.48;;;7.70;;
7969;SDS011;4030;52.362;9.206;2023-10-19T01:56:26;9.30;;;8.40;;
7969;SDS011;4030;52.362;9.206;2023-10-19T01:58:52;9.05;;;8.15;;
7969;SDS011;4030;52.362;9.206;2023-10-19T02:01:19;9.35;;;8.45;;
7969;SDS011;4030;52.362;9.206;2023-10-19T02:03:54;8.83;;;7.93;;
7969;SDS011;4030;52.362;9.206;2023-10-19T02:06:24;8.50;;;7.70;;
7969;SDS011;4030;52.362;9.206;2023-10-19T02:11:54;9.20;;;8.38;;
7969;SDS011;4030;52.362;9.206;2023-10-19T02:14:22;9.27;;;8.43;;
7969;SDS011;4030;52.362;9.206;2023-10-19T02:16:51;8.75;;;7.93;;
7969;SDS011;4030;52.362;9.206;2023-10-19T02:19:21;8.90;;;8.02;;
7969;SDS011;4030;52.362;9.206;2023-10-19T02:21:50;8.70;;;7.90;;
7969;SDS011;4030;52.362;9.206;2023-10-19T02:24:33;8.70;;;7.90;;
7969;SDS011;4030;52.362;9.206;2023-10-19T02:26:59;8.65;;;7.85;;
7969;SDS011;4030;52.362;9.206;2023-10-19T02:29:26;8.23;;;7.43;;
7969;SDS011;4030;52.362;9.206;2023-10-19T02:31:51;8.60;;;7.77;;
7969;SDS011;4030;52.362;9.206;2023-10-19T02:34:21;8.85;;;8.02;;
7969;SDS011;4030;52.362;9.206;2023-10-19T02:36:48;9.07;;;8.18;;
7969;SDS011;4030;52.362;9.206;2023-10-19T02:39:14;8.35;;;7.65;;
7969;SDS011;4030;52.362;9.206;2023-10-19T02:41:43;8.98;;;8.20;;
7969;SDS011;4030;52.362;9.206;2023-10-19T02:44:17;8.90;;;7.90;;
7969;SDS011;4030;52.362;9.206;2023-10-19T02:46:52;8.75;;;8.02;;
7969;SDS011;4030;52.362;9.206;2023-10-19T02:49:24;8.80;;;7.97;;
7969;SDS011;4030;52.362;9.206;2023-10-19T02:51:54;9.23;;;8.40;;
7969;SDS011;4030;52.362;9.206;2023-10-19T02:54:23;9.35;;;8.45;;
7969;SDS011;4030;52.362;9.206;2023-10-19T02:56:50;9.57;;;8.68;;
7969;SDS011;4030;52.362;9.206;2023-10-19T02:59:19;9.03;;;8.23;;
7969;SDS011;4030;52.362;9.206;2023-10-19T03:01:49;8.93;;;8.03;;
7969;SDS011;4030;52.362;9.206;2023-10-19T03:04:17;10.43;;;8.90;;
7969;SDS011;4030;52.362;9.206;2023-10-19T03:06:43;9.10;;;8.20;;
7969;SDS011;4030;52.362;9.206;2023-10-19T03:09:09;9.57;;;8.70;;
7969;SDS011;4030;52.362;9.206;2023-10-19T03:11:41;9.77;;;8.88;;
7969;SDS011;4030;52.362;9.206;2023-10-19T03:14:09;9.98;;;9.07;;
7969;SDS011;4030;52.362;9.206;2023-10-19T03:16:39;9.10;;;8.30;;
7969;SDS011;4030;52.362;9.206;2023-10-19T03:19:08;9.65;;;8.77;;
7969;SDS011;4030;52.362;9.206;2023-10-19T03:21:34;8.95;;;8.15;;
7969;SDS011;4030;52.362;9.206;2023-10-19T03:24:13;9.52;;;8.70;;
7969;SDS011;4030;52.362;9.206;2023-10-19T03:26:58;9.05;;;8.25;;
7969;SDS011;4030;52.362;9.206;2023-10-19T03:29:24;9.10;;;8.30;;
7969;SDS011;4030;52.362;9.206;2023-10-19T03:31:57;9.52;;;8.63;;
7969;SDS011;4030;52.362;9.206;2023-10-19T03:34:26;9.35;;;8.55;;
7969;SDS011;4030;52.362;9.206;2023-10-19T03:36:52;8.93;;;8.13;;
7969;SDS011;4030;52.362;9.206;2023-10-19T03:39:19;9.13;;;8.30;;
7969;SDS011;4030;52.362;9.206;2023-10-19T03:41:46;9.75;;;8.85;;
7969;SDS011;4030;52.362;9.206;2023-10-19T03:44:14;8.97;;;8.07;;
7969;SDS011;4030;52.362;9.206;2023-10-19T03:46:45;8.90;;;8.10;;
7969;SDS011;4030;52.362;9.206;2023-10-19T03:49:29;8.87;;;8.07;;
7969;SDS011;4030;52.362;9.206;2023-10-19T03:52:03;8.37;;;7.67;;
7969;SDS011;4030;52.362;9.206;2023-10-19T03:54:34;8.63;;;7.82;;
7969;SDS011;4030;52.362;9.206;2023-10-19T03:57:05;8.77;;;7.97;;
7969;SDS011;4030;52.362;9.206;2023-10-19T03:59:41;8.73;;;7.93;;
7969;SDS011;4030;52.362;9.206;2023-10-19T04:02:07;8.43;;;7.73;;
7969;SDS011;4030;52.362;9.206;2023-10-19T04:04:42;7.65;;;7.05;;
7969;SDS011;4030;52.362;9.206;2023-10-19T04:07:09;7.90;;;7.20;;
7969;SDS011;4030;52.362;9.206;2023-10-19T04:09:51;7.88;;;7.18;;
7969;SDS011;4030;52.362;9.206;2023-10-19T04:12:42;8.10;;;7.30;;
7969;SDS011;4030;52.362;9.206;2023-10-19T04:15:09;7.22;;;6.63;;
7969;SDS011;4030;52.362;9.206;2023-10-19T04:17:41;7.40;;;6.80;;
7969;SDS011;4030;52.362;9.206;2023-10-19T04:20:10;6.93;;;6.33;;
7969;SDS011;4030;52.362;9.206;2023-10-19T04:22:57;7.23;;;6.63;;
7969;SDS011;4030;52.362;9.206;2023-10-19T04:25:23;7.20;;;6.57;;
7969;SDS011;4030;52.362;9.206;2023-10-19T04:27:52;6.93;;;6.33;;
7969;SDS011;4030;52.362;9.206;2023-10-19T04:30:18;6.43;;;5.83;;
7969;SDS011;4030;52.362;9.206;2023-10-19T04:32:50;6.30;;;5.70;;
7969;SDS011;4030;52.362;9.206;2023-10-19T04:35:16;6.72;;;6.13;;
7969;SDS011;4030;52.362;9.206;2023-10-19T04:37:48;6.18;;;5.68;;
7969;SDS011;4030;52.362;9.206;2023-10-19T04:40:15;6.23;;;5.67;;
7969;SDS011;4030;52.362;9.206;2023-10-19T04:42:41;6.13;;;5.60;;
7969;SDS011;4030;52.362;9.206;2023-10-19T04:45:07;6.28;;;5.78;;
7969;SDS011;4030;52.362;9.206;2023-10-19T04:47:34;6.70;;;6.10;;
7969;SDS011;4030;52.362;9.206;2023-10-19T04:50:03;5.95;;;5.45;;
7969;SDS011;4030;52.362;9.206;2023-10-19T04:52:32;6.13;;;5.63;;
7969;SDS011;4030;52.362;9.206;2023-10-19T04:54:59;5.95;;;5.45;;
7969;SDS011;4030;52.362;9.206;2023-10-19T04:57:26;6.63;;;6.03;;
7969;SDS011;4030;52.362;9.206;2023-10-19T04:59:51;6.13;;;5.55;;
7969;SDS011;4030;52.362;9.206;2023-10-19T05:02:17;6.20;;;5.60;;
7969;SDS011;4030;52.362;9.206;2023-10-19T05:04:43;6.03;;;5.53;;
7969;SDS011;4030;52.362;9.206;2023-10-19T05:07:10;6.67;;;6.07;;
7969;SDS011;4030;52.362;9.206;2023-10-19T05:09:41;5.47;;;5.00;;
7969;SDS011;4030;52.362;9.206;2023-10-19T05:12:11;6.13;;;5.63;;
7969;SDS011;4030;52.362;9.206;2023-10-19T05:14:39;5.85;;;5.35;;
7969;SDS011;4030;52.362;9.206;2023-10-19T05:17:06;5.53;;;5.03;;
7969;SDS011;4030;52.362;9.206;2023-10-19T05:19:34;5.43;;;5.03;;
7969;SDS011;4030;52.362;9.206;2023-10-19T05:22:01;5.17;;;4.67;;
7969;SDS011;4030;52.362;9.206;2023-10-19T05:24:29;5.53;;;4.93;;
7969;SDS011;4030;52.362;9.206;2023-10-19T05:26:55;4.97;;;4.47;;
7969;SDS011;4030;52.362;9.206;2023-10-19T05:29:21;4.80;;;4.40;;
7969;SDS011;4030;52.362;9.206;2023-10-19T05:31:50;5.30;;;4.85;;
7969;SDS011;4030;52.362;9.206;2023-10-19T05:34:19;4.77;;;4.37;;
7969;SDS011;4030;52.362;9.206;2023-10-19T05:36:46;4.10;;;3.70;;
7969;SDS011;4030;52.362;9.206;2023-10-19T05:39:14;4.53;;;4.13;;
7969;SDS011;4030;52.362;9.206;2023-10-19T05:41:40;4.63;;;4.23;;
7969;SDS011;4030;52.362;9.206;2023-10-19T05:44:06;4.30;;;3.90;;
7969;SDS011;4030;52.362;9.206;2023-10-19T05:46:32;3.67;;;3.37;;
7969;SDS011;4030;52.362;9.206;2023-10-19T05:48:57;4.13;;;3.73;;
7969;SDS011;4030;52.362;9.206;2023-10-19T05:51:23;3.90;;;3.60;;
7969;SDS011;4030;52.362;9.206;2023-10-19T05:53:49;3.67;;;3.30;;
7969;SDS011;4030;52.362;9.206;2023-10-19T05:56:16;3.63;;;3.33;;
7969;SDS011;4030;52.362;9.206;2023-10-19T05:58:42;3.40;;;3.10;;
7969;SDS011;4030;52.362;9.206;2023-10-19T06:01:09;3.20;;;2.90;;
7969;SDS011;4030;52.362;9.206;2023-10-19T06:03:35;3.38;;;3.08;;
7969;SDS011;4030;52.362;9.206;2023-10-19T06:06:00;3.10;;;2.80;;
7969;SDS011;4030;52.362;9.206;2023-10-19T06:08:26;3.00;;;2.80;;
7969;SDS011;4030;52.362;9.206;2023-10-19T06:10:53;2.78;;;2.58;;
7969;SDS011;4030;52.362;9.206;2023-10-19T06:13:19;3.00;;;2.75;;
7969;SDS011;4030;52.362;9.206;2023-10-19T06:15:47;3.10;;;2.83;;
7969;SDS011;4030;52.362;9.206;2023-10-19T06:18:13;3.00;;;2.70;;
7969;SDS011;4030;52.362;9.206;2023-10-19T06:20:43;2.88;;;2.67;;
7969;SDS011;4030;52.362;9.206;2023-10-19T06:23:09;3.10;;;2.80;;
7969;SDS011;4030;52.362;9.206;2023-10-19T06:25:36;3.08;;;2.88;;
7969;SDS011;4030;52.362;9.206;2023-10-19T06:28:03;3.30;;;3.00;;
7969;SDS011;4030;52.362;9.206;2023-10-19T06:30:30;3.10;;;2.90;;
7969;SDS011;4030;52.362;9.206;2023-10-19T06:32:58;3.73;;;3.43;;
7969;SDS011;4030;52.362;9.206;2023-10-19T06:35:31;3.40;;;3.10;;
7969;SDS011;4030;52.362;9.206;2023-10-19T06:37:58;3.60;;;3.30;;
7969;SDS011;4030;52.362;9.206;2023-10-19T06:40:26;3.70;;;3.40;;
7969;SDS011;4030;52.362;9.206;2023-10-19T06:42:54;3.65;;;3.35;;
7969;SDS011;4030;52.362;9.206;2023-10-19T06:45:21;3.70;;;3.40;;
7969;SDS011;4030;52.362;9.206;2023-10-19T06:47:49;3.70;;;3.40;;
7969;SDS011;4030;52.362;9.206;2023-10-19T06:50:16;3.60;;;3.30;;
7969;SDS011;4030;52.362;9.206;2023-10-19T06:52:44;3.63;;;3.33;;
7969;SDS011;4030;52.362;9.206;2023-10-19T06:55:13;3.80;;;3.50;;
7969;SDS011;4030;52.362;9.206;2023-10-19T06:57:46;4.07;;;3.67;;
7969;SDS011;4030;52.362;9.206;2023-10-19T07:00:21;3.73;;;3.43;;
7969;SDS011;4030;52.362;9.206;2023-10-19T07:02:52;3.85;;;3.55;;
7969;SDS011;4030;52.362;9.206;2023-10-19T07:05:20;4.15;;;3.85;;
7969;SDS011;4030;52.362;9.206;2023-10-19T07:07:50;3.95;;;3.65;;
7969;SDS011;4030;52.362;9.206;2023-10-19T07:10:19;4.00;;;3.70;;
7969;SDS011;4030;52.362;9.206;2023-10-19T07:12:46;4.00;;;3.70;;
7969;SDS011;4030;52.362;9.206;2023-10-19T07:15:14;4.25;;;3.85;;
7969;SDS011;4030;52.362;9.206;2023-10-19T07:17:40;3.60;;;3.30;;
7969;SDS011;4030;52.362;9.206;2023-10-19T07:20:07;4.20;;;3.60;;
7969;SDS011;4030;52.362;9.206;2023-10-19T07:22:47;4.00;;;3.70;;
7969;SDS011;4030;52.362;9.206;2023-10-19T07:25:13;4.07;;;3.77;;
7969;SDS011;4030;52.362;9.206;2023-10-19T07:27:38;4.18;;;3.78;;
7969;SDS011;4030;52.362;9.206;2023-10-19T07:30:07;4.13;;;3.83;;
7969;SDS011;4030;52.362;9.206;2023-10-19T07:32:34;4.05;;;3.75;;
7969;SDS011;4030;52.362;9.206;2023-10-19T07:35:00;4.40;;;4.00;;
7969;SDS011;4030;52.362;9.206;2023-10-19T07:37:26;4.50;;;4.10;;
7969;SDS011;4030;52.362;9.206;2023-10-19T07:39:53;4.22;;;3.88;;
7969;SDS011;4030;52.362;9.206;2023-10-19T07:42:22;4.20;;;3.90;;
7969;SDS011;4030;52.362;9.206;2023-10-19T07:44:48;4.25;;;3.90;;
7969;SDS011;4030;52.362;9.206;2023-10-19T07:47:14;4.60;;;4.20;;
7969;SDS011;4030;52.362;9.206;2023-10-19T07:49:40;4.45;;;4.05;;
7969;SDS011;4030;52.362;9.206;2023-10-19T07:52:06;4.35;;;3.95;;
7969;SDS011;4030;52.362;9.206;2023-10-19T07:54:33;4.80;;;4.15;;
7969;SDS011;4030;52.362;9.206;2023-10-19T07:57:00;4.57;;;4.18;;
7969;SDS011;4030;52.362;9.206;2023-10-19T07:59:33;5.10;;;4.70;;
7969;SDS011;4030;52.362;9.206;2023-10-19T08:02:00;4.85;;;4.45;;
7969;SDS011;4030;52.362;9.206;2023-10-19T08:04:29;5.50;;;5.00;;
7969;SDS011;4030;52.362;9.206;2023-10-19T08:06:56;5.68;;;5.18;;
7969;SDS011;4030;52.362;9.206;2023-10-19T08:09:23;5.82;;;5.32;;
7969;SDS011;4030;52.362;9.206;2023-10-19T08:11:51;4.95;;;4.55;;
7969;SDS011;4030;52.362;9.206;2023-10-19T08:14:21;5.25;;;4.85;;
7969;SDS011;4030;52.362;9.206;2023-10-19T08:16:49;5.13;;;4.72;;
7969;SDS011;4030;52.362;9.206;2023-10-19T08:19:16;5.20;;;4.80;;
7969;SDS011;4030;52.362;9.206;2023-10-19T08:21:43;4.80;;;4.40;;
7969;SDS011;4030;52.362;9.206;2023-10-19T08:24:09;4.75;;;4.35;;
7969;SDS011;4030;52.362;9.206;2023-10-19T08:26:41;4.90;;;4.50;;
7969;SDS011;4030;52.362;9.206;2023-10-19T08:29:07;4.45;;;4.05;;
7969;SDS011;4030;52.362;9.206;2023-10-19T08:31:44;4.95;;;4.55;;
7969;SDS011;4030;52.362;9.206;2023-10-19T08:34:13;4.57;;;4.25;;
7969;SDS011;4030;52.362;9.206;2023-10-19T08:36:39;4.55;;;4.15;;
7969;SDS011;4030;52.362;9.206;2023-10-19T08:39:05;4.97;;;4.40;;
7969;SDS011;4030;52.362;9.206;2023-10-19T08:41:33;4.70;;;4.05;;
7969;SDS011;4030;52.362;9.206;2023-10-19T08:44:04;4.60;;;4.20;;
7969;SDS011;4030;52.362;9.206;2023-10-19T08:46:40;4.28;;;3.88;;
7969;SDS011;4030;52.362;9.206;2023-10-19T08:49:13;4.40;;;4.00;;
7969;SDS011;4030;52.362;9.206;2023-10-19T08:51:43;4.63;;;4.22;;
7969;SDS011;4030;52.362;9.206;2023-10-19T08:54:14;4.35;;;3.95;;
7969;SDS011;4030;52.362;9.206;2023-10-19T08:56:41;4.25;;;3.85;;
7969;SDS011;4030;52.362;9.206;2023-10-19T08:59:07;4.07;;;3.78;;
7969;SDS011;4030;52.362;9.206;2023-10-19T09:01:36;4.13;;;3.72;;
7969;SDS011;4030;52.362;9.206;2023-10-19T09:04:02;4.45;;;4.05;;
7969;SDS011;4030;52.362;9.206;2023-10-19T09:06:31;4.43;;;4.03;;
7969;SDS011;4030;52.362;9.206;2023-10-19T09:09:06;3.92;;;3.63;;
7969;SDS011;4030;52.362;9.206;2023-10-19T09:11:44;4.40;;;4.00;;
7969;SDS011;4030;52.362;9.206;2023-10-19T09:14:13;6.32;;;4.47;;
7969;SDS011;4030;52.362;9.206;2023-10-19T09:16:58;4.60;;;4.20;;
7969;SDS011;4030;52.362;9.206;2023-10-19T09:19:41;4.57;;;4.18;;
7969;SDS011;4030;52.362;9.206;2023-10-19T09:22:09;4.32;;;3.95;;
7969;SDS011;4030;52.362;9.206;2023-10-19T09:24:43;4.82;;;4.00;;
7969;SDS011;4030;52.362;9.206;2023-10-19T09:27:19;4.20;;;3.80;;
7969;SDS011;4030;52.362;9.206;2023-10-19T09:29:45;4.57;;;4.18;;
7969;SDS011;4030;52.362;9.206;2023-10-19T09:32:12;4.78;;;4.32;;
7969;SDS011;4030;52.362;9.206;2023-10-19T09:34:39;4.30;;;3.90;;
7969;SDS011;4030;52.362;9.206;2023-10-19T09:37:08;4.68;;;4.25;;
7969;SDS011;4030;52.362;9.206;2023-10-19T09:39:35;4.45;;;4.05;;
7969;SDS011;4030;52.362;9.206;2023-10-19T09:47:12;4.55;;;4.15;;
7969;SDS011;4030;52.362;9.206;2023-10-19T09:49:41;5.13;;;4.63;;
7969;SDS011;4030;52.362;9.206;2023-10-19T09:52:10;5.03;;;4.53;;
7969;SDS011;4030;52.362;9.206;2023-10-19T09:57:32;5.22;;;4.72;;
7969;SDS011;4030;52.362;9.206;2023-10-19T10:00:04;5.38;;;4.88;;
7969;SDS011;4030;52.362;9.206;2023-10-19T10:02:43;5.13;;;4.72;;
7969;SDS011;4030;52.362;9.206;2023-10-19T10:10:42;4.90;;;4.50;;
7969;SDS011;4030;52.362;9.206;2023-10-19T10:13:42;4.85;;;4.45;;
7969;SDS011;4030;52.362;9.206;2023-10-19T10:16:01;5.00;;;4.50;;
7969;SDS011;4030;52.362;9.206;2023-10-19T10:18:32;4.82;;;4.43;;
7969;SDS011;4030;52.362;9.206;2023-10-19T10:21:12;5.72;;;4.57;;
7969;SDS011;4030;52.362;9.206;2023-10-19T10:26:19;4.65;;;4.25;;
7969;SDS011;4030;52.362;9.206;2023-10-19T10:31:49;4.85;;;4.45;;
7969;SDS011;4030;52.362;9.206;2023-10-19T10:39:36;4.38;;;3.97;;
7969;SDS011;4030;52.362;9.206;2023-10-19T10:42:08;4.18;;;3.88;;
7969;SDS011;4030;52.362;9.206;2023-10-19T10:47:08;4.20;;;3.80;;
7969;SDS011;4030;52.362;9.206;2023-10-19T10:55:10;4.53;;;4.20;;
7969;SDS011;4030;52.362;9.206;2023-10-19T10:57:40;4.53;;;4.13;;
7969;SDS011;4030;52.362;9.206;2023-10-19T11:00:08;4.60;;;4.20;;
7969;SDS011;4030;52.362;9.206;2023-10-19T11:02:45;4.00;;;3.70;;
7969;SDS011;4030;52.362;9.206;2023-10-19T11:05:12;4.10;;;3.72;;
7969;SDS011;4030;52.362;9.206;2023-10-19T11:07:40;3.80;;;3.50;;
7969;SDS011;4030;52.362;9.206;2023-10-19T11:10:11;4.60;;;4.20;;
7969;SDS011;4030;52.362;9.206;2023-10-19T11:12:38;5.30;;;4.00;;
7969;SDS011;4030;52.362;9.206;2023-10-19T11:15:04;4.30;;;3.90;;
7969;SDS011;4030;52.362;9.206;2023-10-19T11:17:41;4.43;;;4.05;;
7969;SDS011;4030;52.362;9.206;2023-10-19T11:20:08;4.47;;;4.07;;
7969;SDS011;4030;52.362;9.206;2023-10-19T11:22:47;4.18;;;3.78;;
7969;SDS011;4030;52.362;9.206;2023-10-19T11:25:18;4.43;;;4.03;;
7969;SDS011;4030;52.362;9.206;2023-10-19T11:27:45;4.70;;;4.30;;
7969;SDS011;4030;52.362;9.206;2023-10-19T11:30:12;4.57;;;4.15;;
7969;SDS011;4030;52.362;9.206;2023-10-19T11:32:39;4.38;;;4.03;;
7969;SDS011;4030;52.362;9.206;2023-10-19T11:35:04;4.65;;;4.25;;
7969;SDS011;4030;52.362;9.206;2023-10-19T11:40:17;4.28;;;3.88;;
7969;SDS011;4030;52.362;9.206;2023-10-19T11:42:48;4.97;;;4.25;;
7969;SDS011;4030;52.362;9.206;2023-10-19T11:45:15;4.43;;;3.90;;
7969;SDS011;4030;52.362;9.206;2023-10-19T11:47:42;4.53;;;4.13;;
7969;SDS011;4030;52.362;9.206;2023-10-19T11:50:09;4.57;;;4.18;;
7969;SDS011;4030;52.362;9.206;2023-10-19T11:52:43;4.80;;;3.90;;
7969;SDS011;4030;52.362;9.206;2023-10-19T11:55:13;4.93;;;4.53;;
7969;SDS011;4030;52.362;9.206;2023-10-19T11:57:43;4.28;;;3.88;;
7969;SDS011;4030;52.362;9.206;2023-10-19T12:00:10;5.25;;;4.07;;
7969;SDS011;4030;52.362;9.206;2023-10-19T12:02:58;4.35;;;3.95;;
7969;SDS011;4030;52.362;9.206;2023-10-19T12:05:24;4.30;;;3.90;;
7969;SDS011;4030;52.362;9.206;2023-10-19T12:07:50;4.18;;;3.88;;
7969;SDS011;4030;52.362;9.206;2023-10-19T12:10:17;3.90;;;3.60;;
7969;SDS011;4030;52.362;9.206;2023-10-19T12:12:45;4.80;;;4.40;;
7969;SDS011;4030;52.362;9.206;2023-10-19T12:15:11;4.40;;;4.00;;
7969;SDS011;4030;52.362;9.206;2023-10-19T12:17:37;4.38;;;3.97;;
7969;SDS011;4030;52.362;9.206;2023-10-19T12:20:03;3.85;;;3.38;;
7969;SDS011;4030;52.362;9.206;2023-10-19T12:22:31;4.57;;;4.15;;
7969;SDS011;4030;52.362;9.206;2023-10-19T12:25:02;5.30;;;4.80;;
7969;SDS011;4030;52.362;9.206;2023-10-19T12:27:30;4.55;;;4.22;;
7969;SDS011;4030;52.362;9.206;2023-10-19T12:29:55;4.70;;;4.30;;
7969;SDS011;4030;52.362;9.206;2023-10-19T12:32:24;4.65;;;4.25;;
7969;SDS011;4030;52.362;9.206;2023-10-19T12:34:51;4.88;;;4.38;;
7969;SDS011;4030;52.362;9.206;2023-10-19T12:37:22;5.07;;;4.57;;
7969;SDS011;4030;52.362;9.206;2023-10-19T12:39:49;5.25;;;4.80;;
7969;SDS011;4030;52.362;9.206;2023-10-19T12:42:16;5.00;;;4.50;;
7969;SDS011;4030;52.362;9.206;2023-10-19T12:44:42;5.32;;;4.90;;
7969;SDS011;4030;52.362;9.206;2023-10-19T12:47:08;5.28;;;4.60;;
7969;SDS011;4030;52.362;9.206;2023-10-19T12:49:38;5.40;;;4.90;;
7969;SDS011;4030;52.362;9.206;2023-10-19T12:52:05;5.18;;;4.78;;
7969;SDS011;4030;52.362;9.206;2023-10-19T12:54:33;5.95;;;5.38;;
7969;SDS011;4030;52.362;9.206;2023-10-19T12:57:00;6.10;;;5.60;;
7969;SDS011;4030;52.362;9.206;2023-10-19T12:59:29;6.38;;;5.78;;
7969;SDS011;4030;52.362;9.206;2023-10-19T13:01:55;6.28;;;5.68;;
7969;SDS011;4030;52.362;9.206;2023-10-19T13:04:24;6.47;;;5.88;;
7969;SDS011;4030;52.362;9.206;2023-10-19T13:06:51;6.20;;;5.60;;
7969;SDS011;4030;52.362;9.206;2023-10-19T13:09:17;6.50;;;5.90;;
7969;SDS011;4030;52.362;9.206;2023-10-19T13:11:55;6.80;;;6.10;;
7969;SDS011;4030;52.362;9.206;2023-10-19T13:14:23;7.63;;;6.60;;
7969;SDS011;4030;52.362;9.206;2023-10-19T13:16:50;7.95;;;7.25;;
7969;SDS011;4030;52.362;9.206;2023-10-19T13:19:17;7.90;;;6.95;;
7969;SDS011;4030;52.362;9.206;2023-10-19T13:21:46;7.43;;;6.72;;
7969;SDS011;4030;52.362;9.206;2023-10-19T13:24:15;7.47;;;6.72;;
7969;SDS011;4030;52.362;9.206;2023-10-19T13:26:44;7.90;;;6.57;;
7969;SDS011;4030;52.362;9.206;2023-10-19T13:29:12;7.75;;;6.95;;
7969;SDS011;4030;52.362;9.206;2023-10-19T13:31:39;7.22;;;6.53;;
7969;SDS011;4030;52.362;9.206;2023-10-19T13:34:05;7.43;;;6.72;;
7969;SDS011;4030;52.362;9.206;2023-10-19T13:36:35;7.43;;;6.72;;
7969;SDS011;4030;52.362;9.206;2023-10-19T13:39:01;7.10;;;6.40;;
7969;SDS011;4030;52.362;9.206;2023-10-19T13:41:28;7.13;;;6.53;;
7969;SDS011;4030;52.362;9.206;2023-10-19T13:43:54;7.93;;;6.95;;
7969;SDS011;4030;52.362;9.206;2023-10-19T13:46:20;7.30;;;6.55;;
7969;SDS011;4030;52.362;9.206;2023-10-19T13:48:49;6.90;;;6.28;;
7969;SDS011;4030;52.362;9.206;2023-10-19T13:51:18;7.00;;;6.30;;
7969;SDS011;4030;52.362;9.206;2023-10-19T13:53:47;7.60;;;6.90;;
7969;SDS011;4030;52.362;9.206;2023-10-19T13:56:14;7.78;;;6.97;;
7969;SDS011;4030;52.362;9.206;2023-10-19T13:58:40;7.50;;;6.80;;
7969;SDS011;4030;52.362;9.206;2023-10-19T14:01:06;7.97;;;7.18;;
7969;SDS011;4030;52.362;9.206;2023-10-19T14:03:33;9.07;;;7.10;;
7969;SDS011;4030;52.362;9.206;2023-10-19T14:06:00;7.80;;;6.95;;
7969;SDS011;4030;52.362;9.206;2023-10-19T14:08:25;7.50;;;6.80;;
7969;SDS011;4030;52.362;9.206;2023-10-19T14:10:51;8.57;;;7.20;;
7969;SDS011;4030;52.362;9.206;2023-10-19T14:13:17;8.00;;;6.88;;
7969;SDS011;4030;52.362;9.206;2023-10-19T14:15:43;8.40;;;7.45;;
7969;SDS011;4030;52.362;9.206;2023-10-19T14:18:09;7.80;;;7.00;;
7969;SDS011;4030;52.362;9.206;2023-10-19T14:20:38;8.55;;;7.38;;
7969;SDS011;4030;52.362;9.206;2023-10-19T14:23:05;8.02;;;7.07;;
7969;SDS011;4030;52.362;9.206;2023-10-19T14:25:31;8.20;;;7.40;;
7969;SDS011;4030;52.362;9.206;2023-10-19T14:28:08;8.30;;;7.43;;
7969;SDS011;4030;52.362;9.206;2023-10-19T14:30:34;7.60;;;6.80;;
7969;SDS011;4030;52.362;9.206;2023-10-19T14:33:01;9.35;;;7.82;;
7969;SDS011;4030;52.362;9.206;2023-10-19T14:35:27;7.85;;;7.05;;
7969;SDS011;4030;52.362;9.206;2023-10-19T14:37:53;7.90;;;7.07;;
7969;SDS011;4030;52.362;9.206;2023-10-19T14:40:22;8.50;;;7.03;;
7969;SDS011;4030;52.362;9.206;2023-10-19T14:42:50;7.93;;;7.13;;
7969;SDS011;4030;52.362;9.206;2023-10-19T14:45:19;8.07;;;7.30;;
7969;SDS011;4030;52.362;9.206;2023-10-19T14:47:46;8.00;;;7.20;;
7969;SDS011;4030;52.362;9.206;2023-10-19T14:50:14;8.93;;;8.02;;
7969;SDS011;4030;52.362;9.206;2023-10-19T14:52:43;8.07;;;7.30;;
7969;SDS011;4030;52.362;9.206;2023-10-19T14:55:11;8.75;;;7.85;;
7969;SDS011;4030;52.362;9.206;2023-10-19T14:57:39;8.90;;;7.45;;
7969;SDS011;4030;52.362;9.206;2023-10-19T15:00:07;8.68;;;7.78;;
7969;SDS011;4030;52.362;9.206;2023-10-19T15:02:54;8.93;;;7.90;;
7969;SDS011;4030;52.362;9.206;2023-10-19T15:05:25;8.63;;;7.82;;
7969;SDS011;4030;52.362;9.206;2023-10-19T15:07:53;8.65;;;7.75;;
7969;SDS011;4030;52.362;9.206;2023-10-19T15:10:24;7.88;;;7.07;;
7969;SDS011;4030;52.362;9.206;2023-10-19T15:12:54;10.38;;;8.05;;
7969;SDS011;4030;52.362;9.206;2023-10-19T15:15:24;9.73;;;7.93;;
7969;SDS011;4030;52.362;9.206;2023-10-19T15:17:50;8.40;;;7.60;;
7969;SDS011;4030;52.362;9.206;2023-10-19T15:20:18;9.80;;;8.77;;
7969;SDS011;4030;52.362;9.206;2023-10-19T15:22:45;9.25;;;8.35;;
7969;SDS011;4030;52.362;9.206;2023-10-19T15:25:12;9.07;;;8.18;;
7969;SDS011;4030;52.362;9.206;2023-10-19T15:27:39;9.20;;;8.30;;
7969;SDS011;4030;52.362;9.206;2023-10-19T15:30:07;8.77;;;7.90;;
7969;SDS011;4030;52.362;9.206;2023-10-19T15:32:36;9.50;;;8.60;;
7969;SDS011;4030;52.362;9.206;2023-10-19T15:35:11;9.15;;;8.25;;
7969;SDS011;4030;52.362;9.206;2023-10-19T15:37:45;9.63;;;8.50;;
7969;SDS011;4030;52.362;9.206;2023-10-19T15:40:13;9.82;;;8.82;;
7969;SDS011;4030;52.362;9.206;2023-10-19T15:42:41;9.65;;;8.57;;
7969;SDS011;4030;52.362;9.206;2023-10-19T15:45:09;9.77;;;8.77;;
7969;SDS011;4030;52.362;9.206;2023-10-19T15:47:43;9.55;;;8.65;;
7969;SDS011;4030;52.362;9.206;2023-10-19T15:50:09;8.90;;;8.00;;
7969;SDS011;4030;52.362;9.206;2023-10-19T15:52:37;10.95;;;9.45;;
7969;SDS011;4030;52.362;9.206;2023-10-19T15:55:07;10.35;;;9.30;;
7969;SDS011;4030;52.362;9.206;2023-10-19T15:57:38;10.85;;;9.68;;
7969;SDS011;4030;52.362;9.206;2023-10-19T16:00:06;10.20;;;9.10;;
7969;SDS011;4030;52.362;9.206;2023-10-19T16:02:39;10.10;;;9.10;;
7969;SDS011;4030;52.362;9.206;2023-10-19T16:05:06;10.00;;;9.00;;
7969;SDS011;4030;52.362;9.206;2023-10-19T16:07:33;10.10;;;9.05;;